sensor_id;sensor_type;location;lat;lon;timestamp;P1;durP1;ratioP1;P2;durP2;ratioP2
19004;SDS011;9635;52.078;8.648;2023-09-08T00:02:20;7.43;;;5.45;;
19004;SDS011;9635;52.078;8.648;2023-09-08T00:07:23;7.53;;;5.85;;
19004;SDS011;9635;52.078;8.648;2023-09-08T00:12:28;10.10;;;5.47;;
19004;SDS011;9635;52.078;8.648;2023-09-08T00:17:30;5.72;;;5.22;;
19004;SDS011;9635;52.078;8.648;2023-09-08T00:22:33;6.72;;;5.45;;
19004;SDS011;9635;52.078;8.648;2023-09-08T00:27:38;6.05;;;5.30;;
19004;SDS011;9635;52.078;8.648;2023-09-08T00:32:41;6.28;;;5.47;;
19004;SDS011;9635;52.078;8.648;2023-09-08T00:37:44;6.68;;;5.10;;
19004;SDS011;9635;52.078;8.648;2023-09-08T00:42:48;6.40;;;5.53;;
19004;SDS011;9635;52.078;8.648;2023-09-08T00:47:51;8.40;;;5.50;;
19004;SDS011;9635;52.078;8.648;2023-09-08T00:52:54;5.90;;;5.30;;
19004;SDS011;9635;52.078;8.648;2023-09-08T00:57:59;9.65;;;5.90;;
19004;SDS011;9635;52.078;8.648;2023-09-08T01:03:02;7.28;;;6.45;;
19004;SDS011;9635;52.078;8.648;2023-09-08T01:08:06;13.20;;;7.75;;
19004;SDS011;9635;52.078;8.648;2023-09-08T01:13:11;9.90;;;6.38;;
19004;SDS011;9635;52.078;8.648;2023-09-08T01:18:14;7.57;;;6.05;;
19004;SDS011;9635;52.078;8.648;2023-09-08T01:23:18;7.70;;;6.18;;
19004;SDS011;9635;52.078;8.648;2023-09-08T01:28:25;8.38;;;5.85;;
19004;SDS011;9635;52.078;8.648;2023-09-08T01:33:29;10.02;;;6.75;;
19004;SDS011;9635;52.078;8.648;2023-09-08T01:38:32;10.55;;;6.38;;
19004;SDS011;9635;52.078;8.648;2023-09-08T01:43:37;7.65;;;5.95;;
19004;SDS011;9635;52.078;8.648;2023-09-08T01:48:40;10.55;;;6.70;;
19004;SDS011;9635;52.078;8.648;2023-09-08T01:53:43;6.78;;;6.07;;
19004;SDS011;9635;52.078;8.648;2023-09-08T01:58:47;7.28;;;6.57;;
19004;SDS011;9635;52.078;8.648;2023-09-08T02:03:50;7.93;;;6.35;;
19004;SDS011;9635;52.078;8.648;2023-09-08T02:08:54;32.75;;;7.40;;
19004;SDS011;9635;52.078;8.648;2023-09-08T02:13:58;7.00;;;6.30;;
19004;SDS011;9635;52.078;8.648;2023-09-08T02:19:01;7.93;;;6.38;;
19004;SDS011;9635;52.078;8.648;2023-09-08T02:24:04;7.07;;;6.38;;
19004;SDS011;9635;52.078;8.648;2023-09-08T02:29:09;7.22;;;6.53;;
19004;SDS011;9635;52.078;8.648;2023-09-08T02:34:12;10.40;;;6.63;;
19004;SDS011;9635;52.078;8.648;2023-09-08T02:39:15;7.97;;;6.68;;
19004;SDS011;9635;52.078;8.648;2023-09-08T02:44:22;9.82;;;6.65;;
19004;SDS011;9635;52.078;8.648;2023-09-08T02:49:26;13.95;;;7.80;;
19004;SDS011;9635;52.078;8.648;2023-09-08T02:54:29;11.93;;;7.53;;
19004;SDS011;9635;52.078;8.648;2023-09-08T02:59:33;10.32;;;6.90;;
19004;SDS011;9635;52.078;8.648;2023-09-08T03:04:36;9.45;;;7.82;;
19004;SDS011;9635;52.078;8.648;2023-09-08T03:09:39;7.85;;;6.95;;
19004;SDS011;9635;52.078;8.648;2023-09-08T03:14:43;12.75;;;7.05;;
19004;SDS011;9635;52.078;8.648;2023-09-08T03:19:46;9.20;;;8.27;;
19004;SDS011;9635;52.078;8.648;2023-09-08T03:24:49;8.70;;;7.05;;
19004;SDS011;9635;52.078;8.648;2023-09-08T03:29:54;9.60;;;7.57;;
19004;SDS011;9635;52.078;8.648;2023-09-08T03:34:57;11.40;;;7.78;;
19004;SDS011;9635;52.078;8.648;2023-09-08T03:40:03;10.32;;;7.22;;
19004;SDS011;9635;52.078;8.648;2023-09-08T03:45:09;9.80;;;7.22;;
19004;SDS011;9635;52.078;8.648;2023-09-08T03:50:12;8.43;;;6.82;;
19004;SDS011;9635;52.078;8.648;2023-09-08T03:55:16;9.00;;;7.30;;
19004;SDS011;9635;52.078;8.648;2023-09-08T04:00:20;7.97;;;7.03;;
19004;SDS011;9635;52.078;8.648;2023-09-08T04:05:24;8.75;;;7.20;;
19004;SDS011;9635;52.078;8.648;2023-09-08T04:10:27;8.27;;;7.03;;
19004;SDS011;9635;52.078;8.648;2023-09-08T04:15:31;8.65;;;7.70;;
19004;SDS011;9635;52.078;8.648;2023-09-08T04:20:34;9.20;;;8.00;;
19004;SDS011;9635;52.078;8.648;2023-09-08T04:25:37;9.30;;;7.72;;
19004;SDS011;9635;52.078;8.648;2023-09-08T04:30:41;9.82;;;7.60;;
19004;SDS011;9635;52.078;8.648;2023-09-08T04:35:45;8.10;;;7.00;;
19004;SDS011;9635;52.078;8.648;2023-09-08T04:40:48;8.30;;;7.47;;
19004;SDS011;9635;52.078;8.648;2023-09-08T04:45:53;8.35;;;7.55;;
19004;SDS011;9635;52.078;8.648;2023-09-08T04:50:56;11.38;;;7.82;;
19004;SDS011;9635;52.078;8.648;2023-09-08T04:55:59;8.73;;;7.72;;
19004;SDS011;9635;52.078;8.648;2023-09-08T05:01:05;8.23;;;7.30;;
19004;SDS011;9635;52.078;8.648;2023-09-08T05:06:09;10.70;;;7.28;;
19004;SDS011;9635;52.078;8.648;2023-09-08T05:11:12;11.60;;;7.50;;
19004;SDS011;9635;52.078;8.648;2023-09-08T05:16:17;11.52;;;7.88;;
19004;SDS011;9635;52.078;8.648;2023-09-08T05:21:27;12.85;;;7.25;;
19004;SDS011;9635;52.078;8.648;2023-09-08T05:26:30;10.40;;;7.80;;
19004;SDS011;9635;52.078;8.648;2023-09-08T05:31:35;7.47;;;6.72;;
19004;SDS011;9635;52.078;8.648;2023-09-08T05:36:38;8.77;;;6.93;;
19004;SDS011;9635;52.078;8.648;2023-09-08T05:41:42;9.88;;;6.22;;
19004;SDS011;9635;52.078;8.648;2023-09-08T05:46:46;7.20;;;6.50;;
19004;SDS011;9635;52.078;8.648;2023-09-08T05:51:50;6.70;;;6.00;;
19004;SDS011;9635;52.078;8.648;2023-09-08T05:56:53;8.63;;;7.05;;
19004;SDS011;9635;52.078;8.648;2023-09-08T06:01:58;7.15;;;6.45;;
19004;SDS011;9635;52.078;8.648;2023-09-08T06:07:01;10.57;;;6.88;;
19004;SDS011;9635;52.078;8.648;2023-09-08T06:12:06;7.95;;;6.97;;
19004;SDS011;9635;52.078;8.648;2023-09-08T06:17:10;9.75;;;7.20;;
19004;SDS011;9635;52.078;8.648;2023-09-08T06:22:13;9.02;;;6.47;;
19004;SDS011;9635;52.078;8.648;2023-09-08T06:27:17;9.55;;;6.68;;
19004;SDS011;9635;52.078;8.648;2023-09-08T06:32:22;8.98;;;6.70;;
19004;SDS011;9635;52.078;8.648;2023-09-08T06:37:25;15.43;;;7.00;;
19004;SDS011;9635;52.078;8.648;2023-09-08T06:42:29;10.32;;;6.72;;
19004;SDS011;9635;52.078;8.648;2023-09-08T06:47:43;8.80;;;6.50;;
19004;SDS011;9635;52.078;8.648;2023-09-08T06:52:47;9.27;;;6.20;;
19004;SDS011;9635;52.078;8.648;2023-09-08T06:57:50;9.40;;;6.38;;
19004;SDS011;9635;52.078;8.648;2023-09-08T07:02:54;8.13;;;6.55;;
19004;SDS011;9635;52.078;8.648;2023-09-08T07:07:57;7.25;;;5.50;;
19004;SDS011;9635;52.078;8.648;2023-09-08T07:13:01;8.80;;;5.90;;
19004;SDS011;9635;52.078;8.648;2023-09-08T07:18:06;6.95;;;5.50;;
19004;SDS011;9635;52.078;8.648;2023-09-08T07:23:10;15.30;;;6.13;;
19004;SDS011;9635;52.078;8.648;2023-09-08T07:28:13;13.05;;;5.88;;
19004;SDS011;9635;52.078;8.648;2023-09-08T07:33:18;9.30;;;5.95;;
19004;SDS011;9635;52.078;8.648;2023-09-08T07:38:22;9.30;;;6.10;;
19004;SDS011;9635;52.078;8.648;2023-09-08T07:43:25;6.78;;;5.10;;
19004;SDS011;9635;52.078;8.648;2023-09-08T07:48:30;6.22;;;5.55;;
19004;SDS011;9635;52.078;8.648;2023-09-08T07:53:34;9.90;;;5.93;;
19004;SDS011;9635;52.078;8.648;2023-09-08T07:58:37;8.48;;;5.70;;
19004;SDS011;9635;52.078;8.648;2023-09-08T08:03:42;10.88;;;5.32;;
19004;SDS011;9635;52.078;8.648;2023-09-08T08:08:45;9.25;;;6.28;;
19004;SDS011;9635;52.078;8.648;2023-09-08T08:13:48;9.35;;;5.63;;
19004;SDS011;9635;52.078;8.648;2023-09-08T08:18:52;6.22;;;5.30;;
19004;SDS011;9635;52.078;8.648;2023-09-08T08:23:55;6.40;;;5.40;;
19004;SDS011;9635;52.078;8.648;2023-09-08T08:28:58;7.70;;;5.43;;
19004;SDS011;9635;52.078;8.648;2023-09-08T08:34:02;9.77;;;5.22;;
19004;SDS011;9635;52.078;8.648;2023-09-08T08:39:06;7.22;;;5.18;;
19004;SDS011;9635;52.078;8.648;2023-09-08T08:44:09;8.52;;;4.88;;
19004;SDS011;9635;52.078;8.648;2023-09-08T08:49:13;5.72;;;4.95;;
19004;SDS011;9635;52.078;8.648;2023-09-08T08:54:18;6.70;;;4.97;;
19004;SDS011;9635;52.078;8.648;2023-09-08T08:59:21;9.38;;;5.03;;
19004;SDS011;9635;52.078;8.648;2023-09-08T09:04:26;6.60;;;4.68;;
19004;SDS011;9635;52.078;8.648;2023-09-08T09:09:30;5.88;;;4.82;;
19004;SDS011;9635;52.078;8.648;2023-09-08T09:14:33;6.25;;;5.18;;
19004;SDS011;9635;52.078;8.648;2023-09-08T09:19:37;6.63;;;4.93;;
19004;SDS011;9635;52.078;8.648;2023-09-08T09:24:41;6.25;;;4.85;;
19004;SDS011;9635;52.078;8.648;2023-09-08T09:29:46;7.35;;;5.22;;
19004;SDS011;9635;52.078;8.648;2023-09-08T09:34:51;7.00;;;5.15;;
19004;SDS011;9635;52.078;8.648;2023-09-08T09:39:56;5.90;;;4.75;;
19004;SDS011;9635;52.078;8.648;2023-09-08T09:45:00;8.98;;;5.13;;
19004;SDS011;9635;52.078;8.648;2023-09-08T09:50:05;8.38;;;5.30;;
19004;SDS011;9635;52.078;8.648;2023-09-08T09:55:09;7.72;;;5.10;;
19004;SDS011;9635;52.078;8.648;2023-09-08T10:00:14;7.45;;;5.10;;
19004;SDS011;9635;52.078;8.648;2023-09-08T10:05:19;7.03;;;4.55;;
19004;SDS011;9635;52.078;8.648;2023-09-08T10:10:22;5.93;;;4.70;;
19004;SDS011;9635;52.078;8.648;2023-09-08T10:15:29;7.28;;;5.00;;
19004;SDS011;9635;52.078;8.648;2023-09-08T10:20:35;5.65;;;5.15;;
19004;SDS011;9635;52.078;8.648;2023-09-08T10:25:42;9.73;;;5.00;;
19004;SDS011;9635;52.078;8.648;2023-09-08T10:30:47;5.80;;;4.88;;
19004;SDS011;9635;52.078;8.648;2023-09-08T10:35:52;5.22;;;4.72;;
19004;SDS011;9635;52.078;8.648;2023-09-08T10:46:33;5.28;;;4.55;;
19004;SDS011;9635;52.078;8.648;2023-09-08T10:51:38;8.05;;;4.47;;
19004;SDS011;9635;52.078;8.648;2023-09-08T10:56:48;6.00;;;4.55;;
19004;SDS011;9635;52.078;8.648;2023-09-08T11:01:57;4.50;;;3.67;;
19004;SDS011;9635;52.078;8.648;2023-09-08T11:07:01;5.97;;;4.40;;
19004;SDS011;9635;52.078;8.648;2023-09-08T11:12:05;6.68;;;4.50;;
19004;SDS011;9635;52.078;8.648;2023-09-08T11:17:10;8.27;;;4.35;;
19004;SDS011;9635;52.078;8.648;2023-09-08T11:22:14;6.70;;;3.90;;
19004;SDS011;9635;52.078;8.648;2023-09-08T11:27:18;6.50;;;3.95;;
19004;SDS011;9635;52.078;8.648;2023-09-08T11:32:23;7.30;;;4.47;;
19004;SDS011;9635;52.078;8.648;2023-09-08T11:37:27;6.60;;;4.05;;
19004;SDS011;9635;52.078;8.648;2023-09-08T11:42:30;5.03;;;4.25;;
19004;SDS011;9635;52.078;8.648;2023-09-08T11:47:33;4.60;;;4.20;;
19004;SDS011;9635;52.078;8.648;2023-09-08T11:52:37;5.82;;;3.90;;
19004;SDS011;9635;52.078;8.648;2023-09-08T11:57:42;4.80;;;3.55;;
19004;SDS011;9635;52.078;8.648;2023-09-08T12:02:47;4.60;;;3.90;;
19004;SDS011;9635;52.078;8.648;2023-09-08T12:07:52;4.80;;;3.97;;
19004;SDS011;9635;52.078;8.648;2023-09-08T12:12:57;3.97;;;3.67;;
19004;SDS011;9635;52.078;8.648;2023-09-08T12:18:02;4.43;;;3.95;;
19004;SDS011;9635;52.078;8.648;2023-09-08T12:23:15;4.78;;;4.03;;
19004;SDS011;9635;52.078;8.648;2023-09-08T12:28:20;5.40;;;3.33;;
19004;SDS011;9635;52.078;8.648;2023-09-08T12:33:25;4.28;;;3.92;;
19004;SDS011;9635;52.078;8.648;2023-09-08T12:38:31;4.30;;;3.90;;
19004;SDS011;9635;52.078;8.648;2023-09-08T12:43:35;5.55;;;4.05;;
19004;SDS011;9635;52.078;8.648;2023-09-08T12:48:37;4.25;;;3.85;;
19004;SDS011;9635;52.078;8.648;2023-09-08T12:53:42;4.93;;;3.75;;
19004;SDS011;9635;52.078;8.648;2023-09-08T12:58:45;4.25;;;3.58;;
19004;SDS011;9635;52.078;8.648;2023-09-08T13:03:48;5.65;;;3.75;;
19004;SDS011;9635;52.078;8.648;2023-09-08T13:08:52;5.32;;;3.55;;
19004;SDS011;9635;52.078;8.648;2023-09-08T13:13:56;4.80;;;4.05;;
19004;SDS011;9635;52.078;8.648;2023-09-08T13:19:00;4.03;;;3.70;;
19004;SDS011;9635;52.078;8.648;2023-09-08T13:24:08;5.72;;;3.90;;
19004;SDS011;9635;52.078;8.648;2023-09-08T13:29:12;4.40;;;4.00;;
19004;SDS011;9635;52.078;8.648;2023-09-08T13:34:15;5.53;;;4.10;;
19004;SDS011;9635;52.078;8.648;2023-09-08T13:39:20;6.15;;;3.72;;
19004;SDS011;9635;52.078;8.648;2023-09-08T13:44:23;8.88;;;4.22;;
19004;SDS011;9635;52.078;8.648;2023-09-08T13:49:26;5.88;;;3.85;;
19004;SDS011;9635;52.078;8.648;2023-09-08T13:54:33;4.80;;;4.28;;
19004;SDS011;9635;52.078;8.648;2023-09-08T13:59:39;4.60;;;3.70;;
19004;SDS011;9635;52.078;8.648;2023-09-08T14:04:44;6.22;;;4.00;;
19004;SDS011;9635;52.078;8.648;2023-09-08T14:09:50;5.22;;;3.70;;
19004;SDS011;9635;52.078;8.648;2023-09-08T14:15:05;8.18;;;3.40;;
19004;SDS011;9635;52.078;8.648;2023-09-08T14:20:10;5.22;;;3.80;;
19004;SDS011;9635;52.078;8.648;2023-09-08T14:25:15;7.57;;;4.00;;
19004;SDS011;9635;52.078;8.648;2023-09-08T14:30:18;6.43;;;4.10;;
19004;SDS011;9635;52.078;8.648;2023-09-08T14:35:21;5.28;;;3.50;;
19004;SDS011;9635;52.078;8.648;2023-09-08T14:40:25;4.07;;;3.78;;
19004;SDS011;9635;52.078;8.648;2023-09-08T14:45:28;4.57;;;3.97;;
19004;SDS011;9635;52.078;8.648;2023-09-08T14:50:31;4.60;;;4.20;;
19004;SDS011;9635;52.078;8.648;2023-09-08T14:55:35;5.72;;;4.10;;
19004;SDS011;9635;52.078;8.648;2023-09-08T15:00:38;5.85;;;4.20;;
19004;SDS011;9635;52.078;8.648;2023-09-08T15:05:42;4.75;;;4.35;;
19004;SDS011;9635;52.078;8.648;2023-09-08T15:10:46;4.65;;;4.13;;
19004;SDS011;9635;52.078;8.648;2023-09-08T15:15:49;8.10;;;4.10;;
19004;SDS011;9635;52.078;8.648;2023-09-08T15:20:52;4.95;;;4.38;;
19004;SDS011;9635;52.078;8.648;2023-09-08T15:25:57;5.25;;;4.53;;
19004;SDS011;9635;52.078;8.648;2023-09-08T15:31:00;5.13;;;4.65;;
19004;SDS011;9635;52.078;8.648;2023-09-08T15:36:04;4.90;;;4.45;;
19004;SDS011;9635;52.078;8.648;2023-09-08T15:41:15;4.70;;;3.92;;
19004;SDS011;9635;52.078;8.648;2023-09-08T15:46:19;5.47;;;4.55;;
19004;SDS011;9635;52.078;8.648;2023-09-08T15:51:22;9.02;;;4.00;;
19004;SDS011;9635;52.078;8.648;2023-09-08T15:56:26;5.32;;;4.20;;
19004;SDS011;9635;52.078;8.648;2023-09-08T16:01:29;4.85;;;4.45;;
19004;SDS011;9635;52.078;8.648;2023-09-08T16:06:32;6.45;;;4.80;;
19004;SDS011;9635;52.078;8.648;2023-09-08T16:11:37;4.30;;;3.90;;
19004;SDS011;9635;52.078;8.648;2023-09-08T16:16:40;6.50;;;4.50;;
19004;SDS011;9635;52.078;8.648;2023-09-08T16:21:43;17.48;;;15.57;;
19004;SDS011;9635;52.078;8.648;2023-09-08T16:26:47;18.92;;;17.02;;
19004;SDS011;9635;52.078;8.648;2023-09-08T16:31:50;16.52;;;15.05;;
19004;SDS011;9635;52.078;8.648;2023-09-08T16:36:53;14.68;;;8.60;;
19004;SDS011;9635;52.078;8.648;2023-09-08T16:41:57;5.45;;;4.63;;
19004;SDS011;9635;52.078;8.648;2023-09-08T16:47:00;4.60;;;4.20;;
19004;SDS011;9635;52.078;8.648;2023-09-08T16:52:03;6.85;;;4.32;;
19004;SDS011;9635;52.078;8.648;2023-09-08T16:57:08;6.80;;;4.30;;
19004;SDS011;9635;52.078;8.648;2023-09-08T17:02:11;6.32;;;5.28;;
19004;SDS011;9635;52.078;8.648;2023-09-08T17:07:14;7.95;;;4.95;;
19004;SDS011;9635;52.078;8.648;2023-09-08T17:12:18;6.63;;;4.43;;
19004;SDS011;9635;52.078;8.648;2023-09-08T17:17:21;8.13;;;4.72;;
19004;SDS011;9635;52.078;8.648;2023-09-08T17:22:24;8.57;;;4.38;;
19004;SDS011;9635;52.078;8.648;2023-09-08T17:27:29;6.10;;;4.70;;
19004;SDS011;9635;52.078;8.648;2023-09-08T17:32:32;4.80;;;4.00;;
19004;SDS011;9635;52.078;8.648;2023-09-08T17:37:36;5.95;;;4.53;;
19004;SDS011;9635;52.078;8.648;2023-09-08T17:42:40;5.70;;;4.50;;
19004;SDS011;9635;52.078;8.648;2023-09-08T17:47:43;8.77;;;5.03;;
19004;SDS011;9635;52.078;8.648;2023-09-08T17:52:46;8.23;;;5.07;;
19004;SDS011;9635;52.078;8.648;2023-09-08T17:57:50;17.23;;;8.60;;
19004;SDS011;9635;52.078;8.648;2023-09-08T18:02:54;10.90;;;6.60;;
19004;SDS011;9635;52.078;8.648;2023-09-08T18:07:57;15.18;;;6.75;;
19004;SDS011;9635;52.078;8.648;2023-09-08T18:13:01;10.88;;;5.65;;
19004;SDS011;9635;52.078;8.648;2023-09-08T18:18:04;9.45;;;6.25;;
19004;SDS011;9635;52.078;8.648;2023-09-08T18:23:08;9.93;;;5.65;;
19004;SDS011;9635;52.078;8.648;2023-09-08T18:28:15;7.78;;;5.05;;
19004;SDS011;9635;52.078;8.648;2023-09-08T18:33:18;7.03;;;5.20;;
19004;SDS011;9635;52.078;8.648;2023-09-08T18:38:21;8.25;;;5.72;;
19004;SDS011;9635;52.078;8.648;2023-09-08T18:43:26;9.15;;;5.72;;
19004;SDS011;9635;52.078;8.648;2023-09-08T18:48:29;10.63;;;6.53;;
19004;SDS011;9635;52.078;8.648;2023-09-08T18:53:32;8.65;;;5.97;;
19004;SDS011;9635;52.078;8.648;2023-09-08T18:58:37;7.82;;;5.75;;
19004;SDS011;9635;52.078;8.648;2023-09-08T19:03:41;8.02;;;6.00;;
19004;SDS011;9635;52.078;8.648;2023-09-08T19:08:43;6.25;;;5.00;;
19004;SDS011;9635;52.078;8.648;2023-09-08T19:13:48;10.38;;;6.43;;
19004;SDS011;9635;52.078;8.648;2023-09-08T19:18:51;5.68;;;5.18;;
19004;SDS011;9635;52.078;8.648;2023-09-08T19:23:53;8.15;;;5.45;;
19004;SDS011;9635;52.078;8.648;2023-09-08T19:28:58;8.70;;;5.72;;
19004;SDS011;9635;52.078;8.648;2023-09-08T19:34:03;7.78;;;5.80;;
19004;SDS011;9635;52.078;8.648;2023-09-08T19:39:06;8.55;;;5.55;;
19004;SDS011;9635;52.078;8.648;2023-09-08T19:44:11;12.90;;;5.78;;
19004;SDS011;9635;52.078;8.648;2023-09-08T19:49:14;8.60;;;5.53;;
19004;SDS011;9635;52.078;8.648;2023-09-08T19:54:18;10.63;;;6.45;;
19004;SDS011;9635;52.078;8.648;2023-09-08T19:59:22;9.65;;;6.07;;
19004;SDS011;9635;52.078;8.648;2023-09-08T20:04:25;7.95;;;6.78;;
19004;SDS011;9635;52.078;8.648;2023-09-08T20:09:29;7.72;;;6.95;;
19004;SDS011;9635;52.078;8.648;2023-09-08T20:14:33;9.73;;;7.03;;
19004;SDS011;9635;52.078;8.648;2023-09-08T20:19:36;7.38;;;6.60;;
19004;SDS011;9635;52.078;8.648;2023-09-08T20:24:39;9.52;;;7.07;;
19004;SDS011;9635;52.078;8.648;2023-09-08T20:29:44;11.02;;;7.10;;
19004;SDS011;9635;52.078;8.648;2023-09-08T20:34:49;12.57;;;7.65;;
19004;SDS011;9635;52.078;8.648;2023-09-08T20:39:52;8.50;;;6.95;;
19004;SDS011;9635;52.078;8.648;2023-09-08T20:44:56;10.52;;;6.85;;
19004;SDS011;9635;52.078;8.648;2023-09-08T20:49:59;10.23;;;7.13;;
19004;SDS011;9635;52.078;8.648;2023-09-08T20:55:02;10.30;;;7.00;;
19004;SDS011;9635;52.078;8.648;2023-09-08T21:00:07;9.00;;;7.28;;
19004;SDS011;9635;52.078;8.648;2023-09-08T21:05:11;11.10;;;6.80;;
19004;SDS011;9635;52.078;8.648;2023-09-08T21:10:14;11.10;;;7.47;;
19004;SDS011;9635;52.078;8.648;2023-09-08T21:15:19;9.80;;;7.60;;
19004;SDS011;9635;52.078;8.648;2023-09-08T21:20:22;11.95;;;7.75;;
19004;SDS011;9635;52.078;8.648;2023-09-08T21:25:24;8.05;;;7.25;;
19004;SDS011;9635;52.078;8.648;2023-09-08T21:30:29;8.82;;;7.40;;
19004;SDS011;9635;52.078;8.648;2023-09-08T21:35:32;11.65;;;8.90;;
19004;SDS011;9635;52.078;8.648;2023-09-08T21:40:37;10.85;;;8.35;;
19004;SDS011;9635;52.078;8.648;2023-09-08T21:45:41;11.65;;;7.88;;
19004;SDS011;9635;52.078;8.648;2023-09-08T21:50:50;8.05;;;7.35;;
19004;SDS011;9635;52.078;8.648;2023-09-08T21:55:53;11.68;;;8.63;;
19004;SDS011;9635;52.078;8.648;2023-09-08T22:00:57;11.48;;;8.48;;
19004;SDS011;9635;52.078;8.648;2023-09-08T22:06:00;14.18;;;8.90;;
19004;SDS011;9635;52.078;8.648;2023-09-08T22:11:04;15.68;;;8.43;;
19004;SDS011;9635;52.078;8.648;2023-09-08T22:16:09;10.68;;;8.25;;
19004;SDS011;9635;52.078;8.648;2023-09-08T22:21:12;15.35;;;8.25;;
19004;SDS011;9635;52.078;8.648;2023-09-08T22:26:15;10.57;;;7.97;;
19004;SDS011;9635;52.078;8.648;2023-09-08T22:31:20;12.32;;;8.85;;
19004;SDS011;9635;52.078;8.648;2023-09-08T22:36:23;9.88;;;8.18;;
19004;SDS011;9635;52.078;8.648;2023-09-08T22:41:25;10.43;;;8.57;;
19004;SDS011;9635;52.078;8.648;2023-09-08T22:46:30;10.45;;;7.55;;
19004;SDS011;9635;52.078;8.648;2023-09-08T22:51:33;8.70;;;7.70;;
19004;SDS011;9635;52.078;8.648;2023-09-08T22:56:35;12.05;;;8.45;;
19004;SDS011;9635;52.078;8.648;2023-09-08T23:01:40;9.95;;;8.13;;
19004;SDS011;9635;52.078;8.648;2023-09-08T23:06:42;10.10;;;8.50;;
19004;SDS011;9635;52.078;8.648;2023-09-08T23:11:45;11.70;;;8.38;;
19004;SDS011;9635;52.078;8.648;2023-09-08T23:16:50;9.02;;;8.13;;
19004;SDS011;9635;52.078;8.648;2023-09-08T23:21:52;9.73;;;8.52;;
19004;SDS011;9635;52.078;8.648;2023-09-08T23:26:55;11.02;;;7.82;;
19004;SDS011;9635;52.078;8.648;2023-09-08T23:32:00;8.90;;;7.65;;
19004;SDS011;9635;52.078;8.648;2023-09-08T23:37:03;9.85;;;7.65;;
19004;SDS011;9635;52.078;8.648;2023-09-08T23:42:07;8.45;;;7.60;;
19004;SDS011;9635;52.078;8.648;2023-09-08T23:47:11;8.88;;;7.97;;
19004;SDS011;9635;52.078;8.648;2023-09-08T23:52:14;10.18;;;7.93;;
19004;SDS011;9635;52.078;8.648;2023-09-08T23:57:17;9.85;;;8.18;;
